sensor_id;sensor_type;location;lat;lon;timestamp;pressure;altitude;pressure_sealevel;temperature;humidity
29385;BME280;16367;48.736;9.218;2023-04-06T00:00:38;-23228.09;;;1.89;72.59
29385;BME280;16367;48.736;9.218;2023-04-06T00:02:41;-23232.72;;;2.03;72.08
29385;BME280;16367;48.736;9.218;2023-04-06T00:04:44;-23231.47;;;1.99;72.48
29385;BME280;16367;48.736;9.218;2023-04-06T00:06:47;-23230.50;;;1.96;73.17
29385;BME280;16367;48.736;9.218;2023-04-06T00:08:50;-23229.84;;;1.94;73.79
29385;BME280;16367;48.736;9.218;2023-04-06T00:10:52;-23233.03;;;2.04;72.61
29385;BME280;16367;48.736;9.218;2023-04-06T00:12:58;-23231.78;;;2.00;72.89
29385;BME280;16367;48.736;9.218;2023-04-06T00:15:01;-23229.53;;;1.93;74.68
29385;BME280;16367;48.736;9.218;2023-04-06T00:17:03;-23230.81;;;1.97;73.81
29385;BME280;16367;48.736;9.218;2023-04-06T00:19:06;-23231.47;;;1.99;73.78
29385;BME280;16367;48.736;9.218;2023-04-06T00:21:11;-23231.94;;;2.01;73.38
29385;BME280;16367;48.736;9.218;2023-04-06T00:23:15;-23231.47;;;1.99;74.42
29385;BME280;16367;48.736;9.218;2023-04-06T00:25:18;-23230.81;;;1.97;73.84
29385;BME280;16367;48.736;9.218;2023-04-06T00:27:21;-23230.97;;;1.98;73.46
29385;BME280;16367;48.736;9.218;2023-04-06T00:29:25;-23230.81;;;1.97;73.73
29385;BME280;16367;48.736;9.218;2023-04-06T00:31:28;-23226.66;;;1.84;75.38
29385;BME280;16367;48.736;9.218;2023-04-06T00:33:32;-23223.78;;;1.75;76.90
29385;BME280;16367;48.736;9.218;2023-04-06T00:35:35;-23225.56;;;1.81;76.57
29385;BME280;16367;48.736;9.218;2023-04-06T00:37:38;-23225.38;;;1.80;76.72
29385;BME280;16367;48.736;9.218;2023-04-06T00:39:41;-23229.06;;;1.92;75.52
29385;BME280;16367;48.736;9.218;2023-04-06T00:41:47;-23222.19;;;1.70;76.32
29385;BME280;16367;48.736;9.218;2023-04-06T00:43:53;-23225.72;;;1.81;75.27
29385;BME280;16367;48.736;9.218;2023-04-06T00:45:57;-23227.00;;;1.85;73.39
29385;BME280;16367;48.736;9.218;2023-04-06T00:48:00;-23227.31;;;1.86;73.51
29385;BME280;16367;48.736;9.218;2023-04-06T00:50:05;-23229.53;;;1.93;71.99
29385;BME280;16367;48.736;9.218;2023-04-06T00:52:08;-23229.22;;;1.92;71.76
29385;BME280;16367;48.736;9.218;2023-04-06T00:54:11;-23228.25;;;1.89;71.21
29385;BME280;16367;48.736;9.218;2023-04-06T00:56:14;-23228.75;;;1.91;71.45
29385;BME280;16367;48.736;9.218;2023-04-06T00:58:17;-23227.00;;;1.85;71.34
29385;BME280;16367;48.736;9.218;2023-04-06T01:00:20;-23228.91;;;1.91;70.95
29385;BME280;16367;48.736;9.218;2023-04-06T01:02:24;-23230.34;;;1.96;72.75
29385;BME280;16367;48.736;9.218;2023-04-06T01:04:28;-23230.66;;;1.97;73.64
29385;BME280;16367;48.736;9.218;2023-04-06T01:06:31;-23226.34;;;1.83;74.19
29385;BME280;16367;48.736;9.218;2023-04-06T01:08:33;-23233.03;;;2.04;71.11
29385;BME280;16367;48.736;9.218;2023-04-06T01:10:36;-23232.91;;;2.04;71.43
29385;BME280;16367;48.736;9.218;2023-04-06T01:12:39;-23233.03;;;2.04;70.73
29385;BME280;16367;48.736;9.218;2023-04-06T01:14:42;-23234.81;;;2.10;71.10
29385;BME280;16367;48.736;9.218;2023-04-06T01:16:45;-23233.22;;;2.05;71.18
29385;BME280;16367;48.736;9.218;2023-04-06T01:18:49;-23227.78;;;1.88;72.36
29385;BME280;16367;48.736;9.218;2023-04-06T01:20:52;-23228.91;;;1.91;72.65
29385;BME280;16367;48.736;9.218;2023-04-06T01:22:56;-23224.28;;;1.77;72.96
29385;BME280;16367;48.736;9.218;2023-04-06T01:24:59;-23222.50;;;1.71;73.61
29385;BME280;16367;48.736;9.218;2023-04-06T01:27:02;-23223.78;;;1.75;74.87
29385;BME280;16367;48.736;9.218;2023-04-06T01:29:05;-23222.19;;;1.70;75.32
29385;BME280;16367;48.736;9.218;2023-04-06T01:31:09;-23221.72;;;1.69;75.26
29385;BME280;16367;48.736;9.218;2023-04-06T01:33:11;-23216.28;;;1.51;76.29
29385;BME280;16367;48.736;9.218;2023-04-06T01:35:14;-23214.53;;;1.46;76.84
29385;BME280;16367;48.736;9.218;2023-04-06T01:37:17;-23212.47;;;1.39;77.61
29385;BME280;16367;48.736;9.218;2023-04-06T01:39:22;-23215.97;;;1.50;77.20
29385;BME280;16367;48.736;9.218;2023-04-06T01:41:25;-23211.66;;;1.37;77.98
29385;BME280;16367;48.736;9.218;2023-04-06T01:43:28;-23210.38;;;1.33;78.34
29385;BME280;16367;48.736;9.218;2023-04-06T01:45:31;-23210.88;;;1.34;78.39
29385;BME280;16367;48.736;9.218;2023-04-06T01:47:34;-23208.16;;;1.26;79.43
29385;BME280;16367;48.736;9.218;2023-04-06T01:49:36;-23206.56;;;1.21;79.81
29385;BME280;16367;48.736;9.218;2023-04-06T01:51:39;-23207.84;;;1.25;79.88
29385;BME280;16367;48.736;9.218;2023-04-06T01:53:42;-23207.03;;;1.22;79.71
29385;BME280;16367;48.736;9.218;2023-04-06T01:55:46;-23204.97;;;1.16;79.79
29385;BME280;16367;48.736;9.218;2023-04-06T01:57:49;-23204.00;;;1.13;80.29
29385;BME280;16367;48.736;9.218;2023-04-06T01:59:52;-23205.13;;;1.16;80.33
29385;BME280;16367;48.736;9.218;2023-04-06T02:01:55;-23203.84;;;1.12;79.64
29385;BME280;16367;48.736;9.218;2023-04-06T02:03:58;-23203.84;;;1.12;80.23
29385;BME280;16367;48.736;9.218;2023-04-06T02:06:01;-23205.13;;;1.16;80.55
29385;BME280;16367;48.736;9.218;2023-04-06T02:08:05;-23201.59;;;1.05;80.66
29385;BME280;16367;48.736;9.218;2023-04-06T02:10:11;-23203.69;;;1.12;80.10
29385;BME280;16367;48.736;9.218;2023-04-06T02:12:15;-23204.63;;;1.15;79.78
29385;BME280;16367;48.736;9.218;2023-04-06T02:14:18;-23201.59;;;1.05;80.42
29385;BME280;16367;48.736;9.218;2023-04-06T02:16:21;-23198.72;;;0.96;80.36
29385;BME280;16367;48.736;9.218;2023-04-06T02:18:24;-23203.03;;;1.10;80.10
29385;BME280;16367;48.736;9.218;2023-04-06T02:20:27;-23203.53;;;1.11;78.60
29385;BME280;16367;48.736;9.218;2023-04-06T02:22:30;-23205.44;;;1.17;78.27
29385;BME280;16367;48.736;9.218;2023-04-06T02:24:33;-23203.84;;;1.12;77.88
29385;BME280;16367;48.736;9.218;2023-04-06T02:26:35;-23204.81;;;1.15;77.81
29385;BME280;16367;48.736;9.218;2023-04-06T02:28:40;-23210.38;;;1.33;75.76
29385;BME280;16367;48.736;9.218;2023-04-06T02:30:42;-23209.13;;;1.29;76.31
29385;BME280;16367;48.736;9.218;2023-04-06T02:32:45;-23215.50;;;1.49;74.29
29385;BME280;16367;48.736;9.218;2023-04-06T02:34:48;-23215.81;;;1.50;74.61
29385;BME280;16367;48.736;9.218;2023-04-06T02:36:51;-23210.22;;;1.32;75.47
29385;BME280;16367;48.736;9.218;2023-04-06T02:38:54;-23212.94;;;1.41;74.71
29385;BME280;16367;48.736;9.218;2023-04-06T02:40:57;-23209.13;;;1.29;75.78
29385;BME280;16367;48.736;9.218;2023-04-06T02:42:59;-23207.19;;;1.23;76.09
29385;BME280;16367;48.736;9.218;2023-04-06T02:45:05;-23208.78;;;1.28;76.18
29385;BME280;16367;48.736;9.218;2023-04-06T02:47:08;-23208.16;;;1.26;76.96
29385;BME280;16367;48.736;9.218;2023-04-06T02:49:11;-23204.16;;;1.13;77.73
29385;BME280;16367;48.736;9.218;2023-04-06T02:51:14;-23200.81;;;1.03;78.78
29385;BME280;16367;48.736;9.218;2023-04-06T02:53:16;-23201.94;;;1.06;78.30
29385;BME280;16367;48.736;9.218;2023-04-06T02:55:19;-23201.28;;;1.04;78.82
29385;BME280;16367;48.736;9.218;2023-04-06T02:57:23;-23205.75;;;1.18;78.37
29385;BME280;16367;48.736;9.218;2023-04-06T02:59:26;-23206.25;;;1.20;77.76
29385;BME280;16367;48.736;9.218;2023-04-06T03:01:30;-23209.44;;;1.30;77.12
29385;BME280;16367;48.736;9.218;2023-04-06T03:03:33;-23198.56;;;0.96;79.07
29385;BME280;16367;48.736;9.218;2023-04-06T03:05:36;-23199.53;;;0.99;79.69
29385;BME280;16367;48.736;9.218;2023-04-06T03:07:39;-23198.72;;;0.96;79.58
29385;BME280;16367;48.736;9.218;2023-04-06T03:09:41;-23201.44;;;1.05;78.86
29385;BME280;16367;48.736;9.218;2023-04-06T03:11:44;-23201.13;;;1.04;78.51
29385;BME280;16367;48.736;9.218;2023-04-06T03:13:47;-23201.75;;;1.06;78.33
29385;BME280;16367;48.736;9.218;2023-04-06T03:15:50;-23199.69;;;0.99;79.01
29385;BME280;16367;48.736;9.218;2023-04-06T03:17:54;-23199.22;;;0.98;79.69
29385;BME280;16367;48.736;9.218;2023-04-06T03:20:00;-23199.22;;;0.98;79.41
29385;BME280;16367;48.736;9.218;2023-04-06T03:22:03;-23196.34;;;0.89;80.05
29385;BME280;16367;48.736;9.218;2023-04-06T03:24:07;-23197.28;;;0.92;80.13
29385;BME280;16367;48.736;9.218;2023-04-06T03:26:10;-23197.13;;;0.91;80.01
29385;BME280;16367;48.736;9.218;2023-04-06T03:28:13;-23194.75;;;0.84;80.07
29385;BME280;16367;48.736;9.218;2023-04-06T03:30:16;-23194.91;;;0.84;80.61
29385;BME280;16367;48.736;9.218;2023-04-06T03:32:19;-23191.22;;;0.72;80.91
29385;BME280;16367;48.736;9.218;2023-04-06T03:34:23;-23192.97;;;0.78;80.80
29385;BME280;16367;48.736;9.218;2023-04-06T03:36:26;-23192.50;;;0.77;79.65
29385;BME280;16367;48.736;9.218;2023-04-06T03:38:29;-23191.72;;;0.74;79.55
29385;BME280;16367;48.736;9.218;2023-04-06T03:40:32;-23193.78;;;0.81;78.57
29385;BME280;16367;48.736;9.218;2023-04-06T03:42:35;-23194.75;;;0.84;78.44
29385;BME280;16367;48.736;9.218;2023-04-06T03:44:38;-23195.38;;;0.86;77.72
29385;BME280;16367;48.736;9.218;2023-04-06T03:46:40;-23197.63;;;0.93;77.28
29385;BME280;16367;48.736;9.218;2023-04-06T03:48:43;-23199.53;;;0.99;76.89
29385;BME280;16367;48.736;9.218;2023-04-06T03:50:48;-23198.56;;;0.96;76.82
29385;BME280;16367;48.736;9.218;2023-04-06T03:52:51;-23199.22;;;0.98;76.59
29385;BME280;16367;48.736;9.218;2023-04-06T03:54:53;-23200.31;;;1.01;75.99
29385;BME280;16367;48.736;9.218;2023-04-06T03:56:56;-23199.06;;;0.97;75.93
29385;BME280;16367;48.736;9.218;2023-04-06T03:58:59;-23198.72;;;0.96;76.05
29385;BME280;16367;48.736;9.218;2023-04-06T04:01:03;-23198.88;;;0.97;76.13
29385;BME280;16367;48.736;9.218;2023-04-06T04:03:06;-23197.94;;;0.94;75.93
29385;BME280;16367;48.736;9.218;2023-04-06T04:05:09;-23192.50;;;0.77;77.09
29385;BME280;16367;48.736;9.218;2023-04-06T04:07:13;-23190.44;;;0.70;77.82
29385;BME280;16367;48.736;9.218;2023-04-06T04:09:16;-23194.09;;;0.82;77.37
29385;BME280;16367;48.736;9.218;2023-04-06T04:11:19;-23196.34;;;0.89;76.05
29385;BME280;16367;48.736;9.218;2023-04-06T04:13:22;-23196.97;;;0.91;75.98
29385;BME280;16367;48.736;9.218;2023-04-06T04:15:25;-23196.19;;;0.88;76.37
29385;BME280;16367;48.736;9.218;2023-04-06T04:17:28;-23199.53;;;0.99;75.08
29385;BME280;16367;48.736;9.218;2023-04-06T04:19:31;-23199.84;;;1.00;74.01
29385;BME280;16367;48.736;9.218;2023-04-06T04:21:42;-23198.56;;;0.96;74.89
29385;BME280;16367;48.736;9.218;2023-04-06T04:23:47;-23200.00;;;1.00;74.66
29385;BME280;16367;48.736;9.218;2023-04-06T04:25:50;-23198.88;;;0.97;75.24
29385;BME280;16367;48.736;9.218;2023-04-06T04:27:53;-23197.47;;;0.92;75.06
29385;BME280;16367;48.736;9.218;2023-04-06T04:29:56;-23195.69;;;0.87;76.13
29385;BME280;16367;48.736;9.218;2023-04-06T04:31:59;-23197.47;;;0.92;75.72
29385;BME280;16367;48.736;9.218;2023-04-06T04:34:02;-23198.88;;;0.97;75.47
29385;BME280;16367;48.736;9.218;2023-04-06T04:36:06;-23198.25;;;0.95;75.25
29385;BME280;16367;48.736;9.218;2023-04-06T04:38:09;-23198.41;;;0.95;75.16
29385;BME280;16367;48.736;9.218;2023-04-06T04:40:13;-23198.56;;;0.96;75.24
29385;BME280;16367;48.736;9.218;2023-04-06T04:42:16;-23197.94;;;0.94;74.97
29385;BME280;16367;48.736;9.218;2023-04-06T04:44:19;-23199.84;;;1.00;74.88
29385;BME280;16367;48.736;9.218;2023-04-06T04:46:22;-23199.22;;;0.98;74.88
29385;BME280;16367;48.736;9.218;2023-04-06T04:48:25;-23198.56;;;0.96;74.94
29385;BME280;16367;48.736;9.218;2023-04-06T04:50:27;-23198.56;;;0.96;75.15
29385;BME280;16367;48.736;9.218;2023-04-06T04:52:30;-23199.22;;;0.98;74.61
29385;BME280;16367;48.736;9.218;2023-04-06T04:54:33;-23200.50;;;1.02;74.77
29385;BME280;16367;48.736;9.218;2023-04-06T04:56:37;-23199.22;;;0.98;74.94
29385;BME280;16367;48.736;9.218;2023-04-06T04:58:40;-23199.53;;;0.99;74.60
29385;BME280;16367;48.736;9.218;2023-04-06T05:00:43;-23198.88;;;0.97;74.54
29385;BME280;16367;48.736;9.218;2023-04-06T05:02:46;-23198.41;;;0.95;75.09
29385;BME280;16367;48.736;9.218;2023-04-06T05:04:49;-23198.88;;;0.97;75.59
29385;BME280;16367;48.736;9.218;2023-04-06T05:07:02;-23199.53;;;0.99;75.14
29385;BME280;16367;48.736;9.218;2023-04-06T05:09:05;-23198.25;;;0.95;75.22
29385;BME280;16367;48.736;9.218;2023-04-06T05:11:08;-23201.13;;;1.04;75.57
29385;BME280;16367;48.736;9.218;2023-04-06T05:13:12;-23201.13;;;1.04;74.46
29385;BME280;16367;48.736;9.218;2023-04-06T05:15:16;-23203.69;;;1.12;74.31
29385;BME280;16367;48.736;9.218;2023-04-06T05:17:18;-23202.56;;;1.08;74.06
29385;BME280;16367;48.736;9.218;2023-04-06T05:19:21;-23202.88;;;1.09;74.34
29385;BME280;16367;48.736;9.218;2023-04-06T05:21:24;-23204.16;;;1.13;74.23
29385;BME280;16367;48.736;9.218;2023-04-06T05:23:28;-23206.41;;;1.20;74.64
29385;BME280;16367;48.736;9.218;2023-04-06T05:25:31;-23205.91;;;1.19;74.58
29385;BME280;16367;48.736;9.218;2023-04-06T05:27:34;-23209.13;;;1.29;74.75
29385;BME280;16367;48.736;9.218;2023-04-06T05:29:38;-23208.16;;;1.26;74.69
29385;BME280;16367;48.736;9.218;2023-04-06T05:31:42;-23203.38;;;1.11;74.91
29385;BME280;16367;48.736;9.218;2023-04-06T05:33:45;-23201.44;;;1.05;75.68
29385;BME280;16367;48.736;9.218;2023-04-06T05:35:48;-23199.69;;;0.99;76.15
29385;BME280;16367;48.736;9.218;2023-04-06T05:37:51;-23202.41;;;1.08;76.49
29385;BME280;16367;48.736;9.218;2023-04-06T05:39:54;-23199.53;;;0.99;77.38
29385;BME280;16367;48.736;9.218;2023-04-06T05:41:57;-23197.63;;;0.93;77.48
29385;BME280;16367;48.736;9.218;2023-04-06T05:43:59;-23199.84;;;1.00;77.58
29385;BME280;16367;48.736;9.218;2023-04-06T05:46:04;-23195.69;;;0.87;77.55
29385;BME280;16367;48.736;9.218;2023-04-06T05:48:07;-23193.47;;;0.80;77.49
29385;BME280;16367;48.736;9.218;2023-04-06T05:50:10;-23196.97;;;0.91;77.61
29385;BME280;16367;48.736;9.218;2023-04-06T05:52:13;-23197.28;;;0.92;77.44
29385;BME280;16367;48.736;9.218;2023-04-06T05:54:15;-23204.31;;;1.14;77.24
29385;BME280;16367;48.736;9.218;2023-04-06T05:56:18;-23206.25;;;1.20;76.54
29385;BME280;16367;48.736;9.218;2023-04-06T05:58:21;-23208.47;;;1.27;76.26
29385;BME280;16367;48.736;9.218;2023-04-06T06:00:24;-23211.34;;;1.36;76.53
29385;BME280;16367;48.736;9.218;2023-04-06T06:02:30;-23213.25;;;1.42;76.33
29385;BME280;16367;48.736;9.218;2023-04-06T06:04:33;-23212.94;;;1.41;76.70
29385;BME280;16367;48.736;9.218;2023-04-06T06:06:36;-23216.63;;;1.52;76.80
29385;BME280;16367;48.736;9.218;2023-04-06T06:08:39;-23211.03;;;1.35;77.32
29385;BME280;16367;48.736;9.218;2023-04-06T06:10:42;-23208.94;;;1.28;77.88
29385;BME280;16367;48.736;9.218;2023-04-06T06:12:45;-23206.41;;;1.20;79.01
29385;BME280;16367;48.736;9.218;2023-04-06T06:14:48;-23209.59;;;1.30;79.64
29385;BME280;16367;48.736;9.218;2023-04-06T06:16:51;-23211.66;;;1.37;79.43
29385;BME280;16367;48.736;9.218;2023-04-06T06:18:55;-23212.63;;;1.40;79.26
29385;BME280;16367;48.736;9.218;2023-04-06T06:20:58;-23213.09;;;1.41;78.38
29385;BME280;16367;48.736;9.218;2023-04-06T06:23:01;-23211.66;;;1.37;78.21
29385;BME280;16367;48.736;9.218;2023-04-06T06:25:04;-23214.22;;;1.45;77.73
29385;BME280;16367;48.736;9.218;2023-04-06T06:27:07;-23217.41;;;1.55;77.52
29385;BME280;16367;48.736;9.218;2023-04-06T06:29:10;-23221.56;;;1.68;76.64
29385;BME280;16367;48.736;9.218;2023-04-06T06:31:13;-23225.56;;;1.81;75.99
29385;BME280;16367;48.736;9.218;2023-04-06T06:33:16;-23224.44;;;1.77;75.26
29385;BME280;16367;48.736;9.218;2023-04-06T06:35:21;-23231.47;;;1.99;75.46
29385;BME280;16367;48.736;9.218;2023-04-06T06:37:23;-23233.03;;;2.04;75.71
29385;BME280;16367;48.736;9.218;2023-04-06T06:39:27;-23236.72;;;2.16;75.35
29385;BME280;16367;48.736;9.218;2023-04-06T06:41:30;-23238.16;;;2.20;74.37
29385;BME280;16367;48.736;9.218;2023-04-06T06:43:33;-23239.44;;;2.24;74.71
29385;BME280;16367;48.736;9.218;2023-04-06T06:45:35;-23242.31;;;2.34;74.36
29385;BME280;16367;48.736;9.218;2023-04-06T06:47:38;-23255.06;;;2.74;73.93
29385;BME280;16367;48.736;9.218;2023-04-06T06:49:42;-23264.00;;;3.02;72.30
29385;BME280;16367;48.736;9.218;2023-04-06T06:51:47;-23287.56;;;3.76;70.02
29385;BME280;16367;48.736;9.218;2023-04-06T06:53:50;-23306.69;;;4.37;67.93
29385;BME280;16367;48.736;9.218;2023-04-06T06:55:52;-23303.81;;;4.28;66.92
29385;BME280;16367;48.736;9.218;2023-04-06T06:57:55;-23309.56;;;4.46;65.84
29385;BME280;16367;48.736;9.218;2023-04-06T06:59:58;-23302.56;;;4.24;66.77
29385;BME280;16367;48.736;9.218;2023-04-06T07:02:01;-23291.72;;;3.90;67.74
29385;BME280;16367;48.736;9.218;2023-04-06T07:04:04;-23310.03;;;4.47;66.46
29385;BME280;16367;48.736;9.218;2023-04-06T07:06:09;-23319.91;;;4.79;64.96
29385;BME280;16367;48.736;9.218;2023-04-06T07:08:13;-23342.03;;;5.49;63.73
29385;BME280;16367;48.736;9.218;2023-04-06T07:10:16;-23347.44;;;5.66;61.93
29385;BME280;16367;48.736;9.218;2023-04-06T07:12:19;-23366.53;;;6.26;60.87
29385;BME280;16367;48.736;9.218;2023-04-06T07:14:22;-23388.31;;;6.95;59.24
29385;BME280;16367;48.736;9.218;2023-04-06T07:16:25;-23398.66;;;7.28;59.44
29385;BME280;16367;48.736;9.218;2023-04-06T07:18:28;-23379.25;;;6.66;60.02
29385;BME280;16367;48.736;9.218;2023-04-06T07:20:31;-23387.19;;;6.92;59.47
29385;BME280;16367;48.736;9.218;2023-04-06T07:22:34;-23388.16;;;6.95;58.59
29385;BME280;16367;48.736;9.218;2023-04-06T07:24:38;-23404.03;;;7.45;58.59
29385;BME280;16367;48.736;9.218;2023-04-06T07:26:42;-23389.59;;;6.99;56.01
29385;BME280;16367;48.736;9.218;2023-04-06T07:28:45;-23354.13;;;5.87;59.47
29385;BME280;16367;48.736;9.218;2023-04-06T07:30:48;-23357.94;;;5.99;59.46
29385;BME280;16367;48.736;9.218;2023-04-06T07:32:51;-23378.31;;;6.63;59.35
29385;BME280;16367;48.736;9.218;2023-04-06T07:34:55;-23399.28;;;7.30;57.59
29385;BME280;16367;48.736;9.218;2023-04-06T07:36:59;-23373.53;;;6.48;58.73
29385;BME280;16367;48.736;9.218;2023-04-06T07:39:04;-23408.50;;;7.59;58.09
29385;BME280;16367;48.736;9.218;2023-04-06T07:41:08;-23400.06;;;7.32;57.38
29385;BME280;16367;48.736;9.218;2023-04-06T07:43:11;-23409.91;;;7.64;57.53
29385;BME280;16367;48.736;9.218;2023-04-06T07:45:14;-23401.81;;;7.38;57.46
29385;BME280;16367;48.736;9.218;2023-04-06T07:47:17;-23422.16;;;8.02;56.80
29385;BME280;16367;48.736;9.218;2023-04-06T07:49:20;-23476.56;;;9.75;53.74
29385;BME280;16367;48.736;9.218;2023-04-06T07:51:24;-23437.06;;;8.50;54.58
29385;BME280;16367;48.736;9.218;2023-04-06T07:53:27;-23452.94;;;9.00;54.52
29385;BME280;16367;48.736;9.218;2023-04-06T07:55:30;-23481.16;;;9.90;52.85
29385;BME280;16367;48.736;9.218;2023-04-06T07:57:35;-23477.38;;;9.77;51.24
29385;BME280;16367;48.736;9.218;2023-04-06T07:59:38;-23452.94;;;9.00;54.18
29385;BME280;16367;48.736;9.218;2023-04-06T08:01:41;-23458.97;;;9.19;53.36
29385;BME280;16367;48.736;9.218;2023-04-06T08:03:44;-23482.13;;;9.93;52.06
29385;BME280;16367;48.736;9.218;2023-04-06T08:05:47;-23469.13;;;9.51;51.83
29385;BME280;16367;48.736;9.218;2023-04-06T08:07:49;-23481.81;;;9.92;50.75
29385;BME280;16367;48.736;9.218;2023-04-06T08:09:52;-23505.56;;;10.67;49.05
29385;BME280;16367;48.736;9.218;2023-04-06T08:11:55;-23495.75;;;10.36;49.92
29385;BME280;16367;48.736;9.218;2023-04-06T08:13:59;-23492.59;;;10.26;50.02
29385;BME280;16367;48.736;9.218;2023-04-06T08:16:03;-23510.00;;;10.81;50.45
29385;BME280;16367;48.736;9.218;2023-04-06T08:18:06;-23510.81;;;10.84;48.49
29385;BME280;16367;48.736;9.218;2023-04-06T08:20:09;-23502.72;;;10.58;50.14
29385;BME280;16367;48.736;9.218;2023-04-06T08:22:12;-23511.13;;;10.85;49.67
29385;BME280;16367;48.736;9.218;2023-04-06T08:24:15;-23535.97;;;11.64;48.60
29385;BME280;16367;48.736;9.218;2023-04-06T08:26:18;-23534.72;;;11.60;47.44
29385;BME280;16367;48.736;9.218;2023-04-06T08:28:21;-23525.22;;;11.30;47.35
29385;BME280;16367;48.736;9.218;2023-04-06T08:30:25;-23540.88;;;11.79;46.97
29385;BME280;16367;48.736;9.218;2023-04-06T08:32:28;-23537.72;;;11.69;47.66
29385;BME280;16367;48.736;9.218;2023-04-06T08:34:32;-23552.75;;;12.17;46.79
29385;BME280;16367;48.736;9.218;2023-04-06T08:36:34;-23550.84;;;12.11;46.91
29385;BME280;16367;48.736;9.218;2023-04-06T08:38:38;-23529.00;;;11.42;47.60
29385;BME280;16367;48.736;9.218;2023-04-06T08:40:41;-23551.16;;;12.12;48.08
29385;BME280;16367;48.736;9.218;2023-04-06T08:42:50;-23509.53;;;10.80;48.60
29385;BME280;16367;48.736;9.218;2023-04-06T08:44:55;-23624.19;;;14.45;42.51
29385;BME280;16367;48.736;9.218;2023-04-06T08:46:59;-23621.97;;;14.38;40.93
29385;BME280;16367;48.736;9.218;2023-04-06T08:49:03;-23573.00;;;12.82;43.16
29385;BME280;16367;48.736;9.218;2023-04-06T08:51:08;-23606.81;;;13.89;41.58
29385;BME280;16367;48.736;9.218;2023-04-06T08:53:11;-23591.00;;;13.39;42.35
29385;BME280;16367;48.736;9.218;2023-04-06T08:55:15;-23561.94;;;12.46;42.86
29385;BME280;16367;48.736;9.218;2023-04-06T08:57:18;-23593.06;;;13.45;41.36
29385;BME280;16367;48.736;9.218;2023-04-06T08:59:23;-23652.91;;;15.36;38.69
29385;BME280;16367;48.736;9.218;2023-04-06T09:01:27;-23613.13;;;14.09;40.99
29385;BME280;16367;48.736;9.218;2023-04-06T09:03:32;-23573.00;;;12.82;42.12
29385;BME280;16367;48.736;9.218;2023-04-06T09:05:38;-23669.94;;;15.91;38.09
29385;BME280;16367;48.736;9.218;2023-04-06T09:07:41;-23627.81;;;14.56;37.91
29385;BME280;16367;48.736;9.218;2023-04-06T09:09:44;-23673.41;;;16.02;38.70
29385;BME280;16367;48.736;9.218;2023-04-06T09:11:50;-23567.31;;;12.63;40.52
29385;BME280;16367;48.736;9.218;2023-04-06T09:13:55;-23618.66;;;14.27;39.33
29385;BME280;16367;48.736;9.218;2023-04-06T09:15:59;-23605.53;;;13.85;38.85
29385;BME280;16367;48.736;9.218;2023-04-06T09:18:03;-23610.59;;;14.01;39.86
29385;BME280;16367;48.736;9.218;2023-04-06T09:20:08;-23629.25;;;14.61;36.77
29385;BME280;16367;48.736;9.218;2023-04-06T09:22:10;-23637.44;;;14.87;37.53
29385;BME280;16367;48.736;9.218;2023-04-06T09:24:13;-23606.03;;;13.87;40.64
29385;BME280;16367;48.736;9.218;2023-04-06T09:26:17;-23583.28;;;13.14;40.38
29385;BME280;16367;48.736;9.218;2023-04-06T09:28:21;-23656.53;;;15.48;35.63
29385;BME280;16367;48.736;9.218;2023-04-06T09:30:24;-23609.34;;;13.97;36.93
29385;BME280;16367;48.736;9.218;2023-04-06T09:32:28;-23634.75;;;14.78;37.01
29385;BME280;16367;48.736;9.218;2023-04-06T09:34:31;-23635.53;;;14.81;36.82
29385;BME280;16367;48.736;9.218;2023-04-06T09:36:36;-23644.38;;;15.09;36.79
29385;BME280;16367;48.736;9.218;2023-04-06T09:38:52;-23644.06;;;15.08;34.83
29385;BME280;16367;48.736;9.218;2023-04-06T09:40:55;-23686.00;;;16.42;33.84
29385;BME280;16367;48.736;9.218;2023-04-06T09:43:02;-23677.19;;;16.14;35.09
29385;BME280;16367;48.736;9.218;2023-04-06T09:45:09;-23707.72;;;17.11;31.52
29385;BME280;16367;48.736;9.218;2023-04-06T09:47:12;-23659.22;;;15.56;35.00
29385;BME280;16367;48.736;9.218;2023-04-06T09:49:17;-23704.59;;;17.01;32.51
29385;BME280;16367;48.736;9.218;2023-04-06T09:51:21;-23626.72;;;14.53;35.69
29385;BME280;16367;48.736;9.218;2023-04-06T09:53:26;-23675.28;;;16.08;33.36
29385;BME280;16367;48.736;9.218;2023-04-06T09:55:33;-23630.34;;;14.64;35.28
29385;BME280;16367;48.736;9.218;2023-04-06T09:57:43;-23623.88;;;14.44;35.56
29385;BME280;16367;48.736;9.218;2023-04-06T09:59:50;-23642.00;;;15.02;35.23
29385;BME280;16367;48.736;9.218;2023-04-06T10:01:58;-23643.44;;;15.06;34.17
29385;BME280;16367;48.736;9.218;2023-04-06T10:04:13;-23610.13;;;14.00;34.34
29385;BME280;16367;48.736;9.218;2023-04-06T10:06:22;-23672.44;;;15.99;32.18
29385;BME280;16367;48.736;9.218;2023-04-06T10:08:28;-23675.28;;;16.08;31.67
29385;BME280;16367;48.736;9.218;2023-04-06T10:10:33;-23637.75;;;14.88;32.50
29385;BME280;16367;48.736;9.218;2023-04-06T10:12:37;-23636.19;;;14.83;33.32
29385;BME280;16367;48.736;9.218;2023-04-06T10:14:41;-23668.81;;;15.87;30.20
29385;BME280;16367;48.736;9.218;2023-04-06T10:16:48;-23622.44;;;14.39;32.34
29385;BME280;16367;48.736;9.218;2023-04-06T10:18:54;-23675.59;;;16.09;30.92
29385;BME280;16367;48.736;9.218;2023-04-06T10:21:02;-23667.41;;;15.83;31.44
29385;BME280;16367;48.736;9.218;2023-04-06T10:23:11;-23648.31;;;15.22;31.28
29385;BME280;16367;48.736;9.218;2023-04-06T10:25:26;-23592.59;;;13.44;33.22
29385;BME280;16367;48.736;9.218;2023-04-06T10:27:32;-23621.66;;;14.37;32.80
29385;BME280;16367;48.736;9.218;2023-04-06T10:29:43;-23610.59;;;14.01;33.84
29385;BME280;16367;48.736;9.218;2023-04-06T10:31:48;-23578.06;;;12.98;34.82
29385;BME280;16367;48.736;9.218;2023-04-06T10:33:54;-23587.06;;;13.26;33.62
29385;BME280;16367;48.736;9.218;2023-04-06T10:35:58;-23585.00;;;13.20;34.06
29385;BME280;16367;48.736;9.218;2023-04-06T10:38:11;-23608.06;;;13.93;33.64
29385;BME280;16367;48.736;9.218;2023-04-06T10:40:22;-23595.44;;;13.53;34.52
29385;BME280;16367;48.736;9.218;2023-04-06T10:42:36;-23549.13;;;12.06;36.38
29385;BME280;16367;48.736;9.218;2023-04-06T10:44:42;-23550.84;;;12.11;36.03
29385;BME280;16367;48.736;9.218;2023-04-06T10:46:52;-23540.09;;;11.77;36.24
29385;BME280;16367;48.736;9.218;2023-04-06T10:48:56;-23557.81;;;12.33;35.64
29385;BME280;16367;48.736;9.218;2023-04-06T10:50:59;-23561.28;;;12.44;35.06
29385;BME280;16367;48.736;9.218;2023-04-06T10:53:02;-23526.00;;;11.32;35.84